sensor_id;sensor_type;location;lat;lon;timestamp;pressure;altitude;pressure_sealevel;temperature;humidity
69239;BME280;56349;51.816;-0.026;2023-08-20T00:00:49;101348.90;;;28.48;31.83
69239;BME280;56349;51.816;-0.026;2023-08-20T00:03:15;101344.84;;;28.46;31.85
69239;BME280;56349;51.816;-0.026;2023-08-20T00:05:41;101338.00;;;28.22;31.89
69239;BME280;56349;51.816;-0.026;2023-08-20T00:08:06;101337.13;;;28.43;31.92
69239;BME280;56349;51.816;-0.026;2023-08-20T00:10:31;101334.58;;;28.41;31.94
69239;BME280;56349;51.816;-0.026;2023-08-20T00:12:58;101333.35;;;28.18;31.96
69239;BME280;56349;51.816;-0.026;2023-08-20T00:15:23;101332.63;;;27.93;31.97
69239;BME280;56349;51.816;-0.026;2023-08-20T00:17:49;101334.02;;;28.36;32.01
69239;BME280;56349;51.816;-0.026;2023-08-20T00:20:14;101335.03;;;28.35;32.03
69239;BME280;56349;51.816;-0.026;2023-08-20T00:22:40;101333.57;;;28.31;32.07
69239;BME280;56349;51.816;-0.026;2023-08-20T00:25:05;101340.40;;;28.28;32.11
69239;BME280;56349;51.816;-0.026;2023-08-20T00:27:30;101343.90;;;28.26;32.14
69239;BME280;56349;51.816;-0.026;2023-08-20T00:29:56;101345.80;;;28.24;32.16
69239;BME280;56349;51.816;-0.026;2023-08-20T00:32:22;101348.26;;;28.22;32.18
69239;BME280;56349;51.816;-0.026;2023-08-20T00:34:47;101353.18;;;28.20;32.21
69239;BME280;56349;51.816;-0.026;2023-08-20T00:37:13;101354.21;;;28.17;32.25
69239;BME280;56349;51.816;-0.026;2023-08-20T00:39:39;101354.99;;;28.16;32.27
69239;BME280;56349;51.816;-0.026;2023-08-20T00:42:05;101357.24;;;27.92;32.28
69239;BME280;56349;51.816;-0.026;2023-08-20T00:44:31;101358.78;;;28.12;32.31
69239;BME280;56349;51.816;-0.026;2023-08-20T00:46:56;101361.71;;;28.11;32.33
69239;BME280;56349;51.816;-0.026;2023-08-20T00:49:22;101369.85;;;28.10;32.33
69239;BME280;56349;51.816;-0.026;2023-08-20T00:51:50;101367.88;;;28.09;32.33
69239;BME280;56349;51.816;-0.026;2023-08-20T00:54:14;101367.56;;;28.07;32.37
69239;BME280;56349;51.816;-0.026;2023-08-20T00:56:40;101368.69;;;28.05;32.38
69239;BME280;56349;51.816;-0.026;2023-08-20T00:59:06;101373.79;;;27.81;32.41
69239;BME280;56349;51.816;-0.026;2023-08-20T01:01:31;101375.31;;;27.78;32.43
69239;BME280;56349;51.816;-0.026;2023-08-20T01:03:56;101371.91;;;28.00;32.45
69239;BME280;56349;51.816;-0.026;2023-08-20T01:06:29;101370.75;;;27.99;32.46
69239;BME280;56349;51.816;-0.026;2023-08-20T01:08:53;101369.03;;;27.97;32.49
69239;BME280;56349;51.816;-0.026;2023-08-20T01:11:16;101372.15;;;27.95;32.50
69239;BME280;56349;51.816;-0.026;2023-08-20T01:13:38;101378.73;;;27.93;32.51
69239;BME280;56349;51.816;-0.026;2023-08-20T01:16:04;101384.91;;;27.92;32.53
69239;BME280;56349;51.816;-0.026;2023-08-20T01:18:30;101388.41;;;27.91;32.56
69239;BME280;56349;51.816;-0.026;2023-08-20T01:21:00;101388.55;;;27.88;32.58
69239;BME280;56349;51.816;-0.026;2023-08-20T01:23:35;101389.62;;;28.13;32.59
69239;BME280;56349;51.816;-0.026;2023-08-20T01:26:00;101384.00;;;28.09;32.61
69239;BME280;56349;51.816;-0.026;2023-08-20T01:28:19;101383.87;;;27.80;32.64
69239;BME280;56349;51.816;-0.026;2023-08-20T01:30:38;101383.45;;;27.79;32.65
69239;BME280;56349;51.816;-0.026;2023-08-20T01:33:04;101383.81;;;27.79;32.66
69239;BME280;56349;51.816;-0.026;2023-08-20T01:35:28;101386.55;;;28.05;32.66
69239;BME280;56349;51.816;-0.026;2023-08-20T01:37:54;101382.36;;;27.77;32.68
69239;BME280;56349;51.816;-0.026;2023-08-20T01:40:20;101381.02;;;28.02;32.70
69239;BME280;56349;51.816;-0.026;2023-08-20T01:42:46;101384.86;;;27.75;32.70
69239;BME280;56349;51.816;-0.026;2023-08-20T01:45:12;101387.84;;;27.74;32.71
69239;BME280;56349;51.816;-0.026;2023-08-20T01:47:38;101392.62;;;27.99;32.72
69239;BME280;56349;51.816;-0.026;2023-08-20T01:50:05;101396.66;;;27.72;32.73
69239;BME280;56349;51.816;-0.026;2023-08-20T01:52:30;101396.53;;;27.98;32.74
69239;BME280;56349;51.816;-0.026;2023-08-20T01:54:58;101396.73;;;27.70;32.76
69239;BME280;56349;51.816;-0.026;2023-08-20T01:57:23;101398.88;;;27.68;32.77
69239;BME280;56349;51.816;-0.026;2023-08-20T01:59:49;101399.89;;;27.68;32.78
69239;BME280;56349;51.816;-0.026;2023-08-20T02:02:15;101400.96;;;27.66;32.80
69239;BME280;56349;51.816;-0.026;2023-08-20T02:04:41;101402.35;;;27.64;32.81
69239;BME280;56349;51.816;-0.026;2023-08-20T02:07:07;101401.96;;;27.61;32.85
69239;BME280;56349;51.816;-0.026;2023-08-20T02:09:33;101400.42;;;27.59;32.88
69239;BME280;56349;51.816;-0.026;2023-08-20T02:11:59;101397.55;;;27.58;32.90
69239;BME280;56349;51.816;-0.026;2023-08-20T02:14:25;101397.36;;;27.57;32.90
69239;BME280;56349;51.816;-0.026;2023-08-20T02:16:51;101399.33;;;27.55;32.91
69239;BME280;56349;51.816;-0.026;2023-08-20T02:19:17;101404.24;;;27.82;32.92
69239;BME280;56349;51.816;-0.026;2023-08-20T02:21:43;101410.45;;;27.53;32.94
69239;BME280;56349;51.816;-0.026;2023-08-20T02:24:09;101408.61;;;27.52;32.97
69239;BME280;56349;51.816;-0.026;2023-08-20T02:26:35;101409.43;;;27.78;32.97
69239;BME280;56349;51.816;-0.026;2023-08-20T02:29:01;101410.50;;;27.76;32.98
69239;BME280;56349;51.816;-0.026;2023-08-20T02:31:27;101411.79;;;27.74;33.01
69239;BME280;56349;51.816;-0.026;2023-08-20T02:33:53;101416.88;;;27.95;33.03
69239;BME280;56349;51.816;-0.026;2023-08-20T02:36:19;101418.43;;;27.45;33.04
69239;BME280;56349;51.816;-0.026;2023-08-20T02:38:45;101414.92;;;27.44;33.04
69239;BME280;56349;51.816;-0.026;2023-08-20T02:41:11;101417.21;;;27.45;33.04
69239;BME280;56349;51.816;-0.026;2023-08-20T02:43:37;101417.03;;;27.93;33.04
69239;BME280;56349;51.816;-0.026;2023-08-20T02:46:03;101416.85;;;27.41;33.05
69239;BME280;56349;51.816;-0.026;2023-08-20T02:48:29;101413.45;;;27.67;33.08
69239;BME280;56349;51.816;-0.026;2023-08-20T02:50:54;101411.54;;;27.38;33.10
69239;BME280;56349;51.816;-0.026;2023-08-20T02:53:21;101411.77;;;27.37;33.10
69239;BME280;56349;51.816;-0.026;2023-08-20T02:55:45;101414.76;;;27.64;33.11
69239;BME280;56349;51.816;-0.026;2023-08-20T02:58:12;101415.25;;;27.35;33.10
69239;BME280;56349;51.816;-0.026;2023-08-20T03:00:36;101417.01;;;27.35;33.12
69239;BME280;56349;51.816;-0.026;2023-08-20T03:03:03;101415.58;;;27.34;33.12
69239;BME280;56349;51.816;-0.026;2023-08-20T03:05:28;101417.31;;;27.33;33.12
69239;BME280;56349;51.816;-0.026;2023-08-20T03:07:53;101419.90;;;27.81;33.14
69239;BME280;56349;51.816;-0.026;2023-08-20T03:10:19;101423.77;;;27.31;33.15
69239;BME280;56349;51.816;-0.026;2023-08-20T03:12:45;101425.71;;;27.56;33.16
69239;BME280;56349;51.816;-0.026;2023-08-20T03:15:11;101427.16;;;27.76;33.17
69239;BME280;56349;51.816;-0.026;2023-08-20T03:17:37;101422.79;;;27.53;33.20
69239;BME280;56349;51.816;-0.026;2023-08-20T03:20:03;101419.76;;;27.75;33.19
69239;BME280;56349;51.816;-0.026;2023-08-20T03:22:28;101420.57;;;27.26;33.19
69239;BME280;56349;51.816;-0.026;2023-08-20T03:24:54;101425.48;;;27.51;33.21
69239;BME280;56349;51.816;-0.026;2023-08-20T03:27:20;101423.78;;;27.70;33.23
69239;BME280;56349;51.816;-0.026;2023-08-20T03:29:46;101424.86;;;27.70;33.25
69239;BME280;56349;51.816;-0.026;2023-08-20T03:32:12;101424.69;;;27.48;33.32
69239;BME280;56349;51.816;-0.026;2023-08-20T03:34:37;101428.29;;;27.53;33.37
69239;BME280;56349;51.816;-0.026;2023-08-20T03:37:04;101433.70;;;27.37;33.36
69239;BME280;56349;51.816;-0.026;2023-08-20T03:39:28;101440.21;;;27.53;33.27
69239;BME280;56349;51.816;-0.026;2023-08-20T03:41:55;101442.13;;;27.74;33.14
69239;BME280;56349;51.816;-0.026;2023-08-20T03:44:20;101445.18;;;27.98;32.95
69239;BME280;56349;51.816;-0.026;2023-08-20T03:46:47;101446.55;;;28.01;32.74
69239;BME280;56349;51.816;-0.026;2023-08-20T03:49:13;101442.71;;;28.06;32.49
69239;BME280;56349;51.816;-0.026;2023-08-20T03:51:38;101439.91;;;28.53;32.22
69239;BME280;56349;51.816;-0.026;2023-08-20T03:54:04;101442.76;;;28.52;31.93
69239;BME280;56349;51.816;-0.026;2023-08-20T03:56:29;101443.93;;;28.67;31.67
69239;BME280;56349;51.816;-0.026;2023-08-20T03:58:54;101447.70;;;28.75;31.49
69239;BME280;56349;51.816;-0.026;2023-08-20T04:01:19;101452.32;;;28.77;31.33
69239;BME280;56349;51.816;-0.026;2023-08-20T04:03:45;101450.78;;;28.77;31.25
69239;BME280;56349;51.816;-0.026;2023-08-20T04:06:10;101451.28;;;28.73;31.22
69239;BME280;56349;51.816;-0.026;2023-08-20T04:08:36;101454.29;;;28.66;31.18
69239;BME280;56349;51.816;-0.026;2023-08-20T04:11:02;101456.75;;;28.60;31.19
69239;BME280;56349;51.816;-0.026;2023-08-20T04:13:28;101456.30;;;28.51;31.22
69239;BME280;56349;51.816;-0.026;2023-08-20T04:15:54;101458.26;;;28.43;31.24
69239;BME280;56349;51.816;-0.026;2023-08-20T04:18:19;101460.12;;;28.36;31.27
69239;BME280;56349;51.816;-0.026;2023-08-20T04:20:45;101459.11;;;28.27;31.32
69239;BME280;56349;51.816;-0.026;2023-08-20T04:23:11;101464.79;;;28.42;31.38
69239;BME280;56349;51.816;-0.026;2023-08-20T04:25:37;101464.50;;;28.33;31.45
69239;BME280;56349;51.816;-0.026;2023-08-20T04:28:04;101460.39;;;28.46;31.52
69239;BME280;56349;51.816;-0.026;2023-08-20T04:30:28;101455.50;;;28.38;31.61
69239;BME280;56349;51.816;-0.026;2023-08-20T04:32:54;101454.31;;;28.29;31.68
69239;BME280;56349;51.816;-0.026;2023-08-20T04:35:21;101462.02;;;28.22;31.74
69239;BME280;56349;51.816;-0.026;2023-08-20T04:37:45;101465.61;;;27.92;31.82
69239;BME280;56349;51.816;-0.026;2023-08-20T04:40:12;101472.16;;;28.07;31.89
69239;BME280;56349;51.816;-0.026;2023-08-20T04:42:36;101475.41;;;28.00;31.98
69239;BME280;56349;51.816;-0.026;2023-08-20T04:45:03;101472.15;;;27.93;32.04
69239;BME280;56349;51.816;-0.026;2023-08-20T04:47:28;101470.11;;;27.87;32.10
69239;BME280;56349;51.816;-0.026;2023-08-20T04:49:54;101470.62;;;27.59;32.15
69239;BME280;56349;51.816;-0.026;2023-08-20T04:52:19;101471.31;;;27.76;32.21
69239;BME280;56349;51.816;-0.026;2023-08-20T04:54:46;101471.27;;;27.71;32.27
69239;BME280;56349;51.816;-0.026;2023-08-20T04:57:11;101476.69;;;27.66;32.34
69239;BME280;56349;51.816;-0.026;2023-08-20T04:59:37;101480.30;;;27.88;32.38
69239;BME280;56349;51.816;-0.026;2023-08-20T05:02:03;101482.37;;;27.84;32.44
69239;BME280;56349;51.816;-0.026;2023-08-20T05:04:28;101486.07;;;27.53;32.48
69239;BME280;56349;51.816;-0.026;2023-08-20T05:06:54;101489.21;;;27.75;32.54
69239;BME280;56349;51.816;-0.026;2023-08-20T05:09:21;101493.61;;;27.44;32.59
69239;BME280;56349;51.816;-0.026;2023-08-20T05:11:45;101493.21;;;27.89;32.63
69239;BME280;56349;51.816;-0.026;2023-08-20T05:14:11;101494.49;;;27.61;32.70
69239;BME280;56349;51.816;-0.026;2023-08-20T05:16:37;101496.85;;;27.58;32.73
69239;BME280;56349;51.816;-0.026;2023-08-20T05:19:04;101495.60;;;27.76;32.76
69239;BME280;56349;51.816;-0.026;2023-08-20T05:21:30;101497.41;;;27.73;32.82
69239;BME280;56349;51.816;-0.026;2023-08-20T05:23:56;101501.49;;;27.47;32.86
69239;BME280;56349;51.816;-0.026;2023-08-20T05:26:22;101509.47;;;27.45;32.88
69239;BME280;56349;51.816;-0.026;2023-08-20T05:28:48;101505.84;;;27.65;32.90
69239;BME280;56349;51.816;-0.026;2023-08-20T05:31:13;101503.59;;;27.40;32.93
69239;BME280;56349;51.816;-0.026;2023-08-20T05:33:39;101503.36;;;27.60;32.96
69239;BME280;56349;51.816;-0.026;2023-08-20T05:36:06;101506.11;;;27.35;33.00
69239;BME280;56349;51.816;-0.026;2023-08-20T05:38:30;101507.22;;;27.55;33.03
69239;BME280;56349;51.816;-0.026;2023-08-20T05:40:56;101506.22;;;27.29;33.06
69239;BME280;56349;51.816;-0.026;2023-08-20T05:43:22;101509.93;;;27.49;33.10
69239;BME280;56349;51.816;-0.026;2023-08-20T05:45:48;101516.38;;;26.97;33.14
69239;BME280;56349;51.816;-0.026;2023-08-20T05:48:14;101521.59;;;27.44;33.17
69239;BME280;56349;51.816;-0.026;2023-08-20T05:50:40;101525.40;;;27.21;33.19
69239;BME280;56349;51.816;-0.026;2023-08-20T05:53:06;101526.59;;;27.18;33.21
69239;BME280;56349;51.816;-0.026;2023-08-20T05:55:31;101525.77;;;27.15;33.25
69239;BME280;56349;51.816;-0.026;2023-08-20T05:57:56;101526.71;;;27.15;33.27
69239;BME280;56349;51.816;-0.026;2023-08-20T06:00:22;101525.40;;;27.37;33.26
69239;BME280;56349;51.816;-0.026;2023-08-20T06:02:48;101524.78;;;27.34;33.30
69239;BME280;56349;51.816;-0.026;2023-08-20T06:05:14;101527.43;;;26.83;33.33
69239;BME280;56349;51.816;-0.026;2023-08-20T06:07:40;101529.81;;;27.09;33.29
69239;BME280;56349;51.816;-0.026;2023-08-20T06:10:07;101531.45;;;27.08;33.33
69239;BME280;56349;51.816;-0.026;2023-08-20T06:12:32;101532.36;;;27.10;33.36
69239;BME280;56349;51.816;-0.026;2023-08-20T06:14:57;101538.12;;;27.35;33.56
69239;BME280;56349;51.816;-0.026;2023-08-20T06:17:23;101538.99;;;27.20;33.87
69239;BME280;56349;51.816;-0.026;2023-08-20T06:19:49;101539.71;;;27.52;34.03
69239;BME280;56349;51.816;-0.026;2023-08-20T06:22:15;101543.84;;;27.46;34.14
69239;BME280;56349;51.816;-0.026;2023-08-20T06:24:41;101551.45;;;27.42;34.11
69239;BME280;56349;51.816;-0.026;2023-08-20T06:27:07;101555.37;;;27.69;33.93
69239;BME280;56349;51.816;-0.026;2023-08-20T06:29:33;101560.06;;;28.00;33.70
69239;BME280;56349;51.816;-0.026;2023-08-20T06:31:59;101557.38;;;28.12;33.37
69239;BME280;56349;51.816;-0.026;2023-08-20T06:34:25;101564.95;;;28.23;33.05
69239;BME280;56349;51.816;-0.026;2023-08-20T06:36:51;101561.23;;;28.56;32.72
69239;BME280;56349;51.816;-0.026;2023-08-20T06:39:17;101560.42;;;28.63;32.37
69239;BME280;56349;51.816;-0.026;2023-08-20T06:41:43;101559.43;;;28.94;31.97
69239;BME280;56349;51.816;-0.026;2023-08-20T06:44:09;101565.15;;;29.19;31.64
69239;BME280;56349;51.816;-0.026;2023-08-20T06:46:35;101570.49;;;29.36;31.39
69239;BME280;56349;51.816;-0.026;2023-08-20T06:49:00;101573.02;;;29.44;31.16
69239;BME280;56349;51.816;-0.026;2023-08-20T06:51:27;101575.71;;;29.25;30.98
69239;BME280;56349;51.816;-0.026;2023-08-20T06:53:53;101575.71;;;29.43;30.87
69239;BME280;56349;51.816;-0.026;2023-08-20T06:56:19;101578.50;;;29.36;30.81
69239;BME280;56349;51.816;-0.026;2023-08-20T06:58:45;101576.84;;;29.04;30.80
69239;BME280;56349;51.816;-0.026;2023-08-20T07:01:10;101573.43;;;29.15;30.80
69239;BME280;56349;51.816;-0.026;2023-08-20T07:03:38;101571.72;;;29.27;30.81
69239;BME280;56349;51.816;-0.026;2023-08-20T07:06:02;101582.24;;;29.16;30.83
69239;BME280;56349;51.816;-0.026;2023-08-20T07:08:28;101584.86;;;28.79;30.89
69239;BME280;56349;51.816;-0.026;2023-08-20T07:10:54;101585.87;;;28.94;31.00
69239;BME280;56349;51.816;-0.026;2023-08-20T07:13:20;101584.74;;;28.56;31.05
69239;BME280;56349;51.816;-0.026;2023-08-20T07:15:46;101581.29;;;28.70;31.06
69239;BME280;56349;51.816;-0.026;2023-08-20T07:18:11;101580.88;;;28.33;31.38
69239;BME280;56349;51.816;-0.026;2023-08-20T07:20:37;101584.79;;;28.52;31.49
69239;BME280;56349;51.816;-0.026;2023-08-20T07:23:04;101587.59;;;28.87;31.58
69239;BME280;56349;51.816;-0.026;2023-08-20T07:25:28;101587.94;;;28.33;31.74
69239;BME280;56349;51.816;-0.026;2023-08-20T07:27:54;101587.93;;;28.45;31.90
69239;BME280;56349;51.816;-0.026;2023-08-20T07:30:20;101587.37;;;28.35;31.90
69239;BME280;56349;51.816;-0.026;2023-08-20T07:32:46;101592.69;;;28.50;31.96
69239;BME280;56349;51.816;-0.026;2023-08-20T07:35:12;101591.52;;;28.42;32.03
69239;BME280;56349;51.816;-0.026;2023-08-20T07:37:38;101592.23;;;28.35;32.07
69239;BME280;56349;51.816;-0.026;2023-08-20T07:40:05;101593.55;;;28.27;32.18
69239;BME280;56349;51.816;-0.026;2023-08-20T07:42:30;101595.69;;;27.74;32.24
69239;BME280;56349;51.816;-0.026;2023-08-20T07:44:55;101595.46;;;27.90;32.32
69239;BME280;56349;51.816;-0.026;2023-08-20T07:47:21;101597.68;;;28.06;32.38
69239;BME280;56349;51.816;-0.026;2023-08-20T07:49:47;101596.99;;;28.00;32.40
69239;BME280;56349;51.816;-0.026;2023-08-20T07:52:13;101596.24;;;27.95;32.43
69239;BME280;56349;51.816;-0.026;2023-08-20T07:54:39;101600.69;;;27.89;32.47
69239;BME280;56349;51.816;-0.026;2023-08-20T07:57:05;101600.14;;;27.83;32.51
69239;BME280;56349;51.816;-0.026;2023-08-20T07:59:31;101604.59;;;27.77;32.61
69239;BME280;56349;51.816;-0.026;2023-08-20T08:01:57;101606.72;;;27.66;32.62
69239;BME280;56349;51.816;-0.026;2023-08-20T08:04:23;101611.01;;;27.48;32.62
69239;BME280;56349;51.816;-0.026;2023-08-20T08:06:48;101613.90;;;27.25;32.74
69239;BME280;56349;51.816;-0.026;2023-08-20T08:09:18;101616.38;;;27.01;32.90
69239;BME280;56349;51.816;-0.026;2023-08-20T08:11:41;101613.04;;;27.28;33.05
69239;BME280;56349;51.816;-0.026;2023-08-20T08:14:07;101612.80;;;27.16;33.15
69239;BME280;56349;51.816;-0.026;2023-08-20T08:16:32;101611.59;;;27.09;33.20
69239;BME280;56349;51.816;-0.026;2023-08-20T08:18:58;101610.65;;;27.05;33.26
69239;BME280;56349;51.816;-0.026;2023-08-20T08:21:24;101607.79;;;26.98;33.29
69239;BME280;56349;51.816;-0.026;2023-08-20T08:23:50;101608.10;;;26.94;33.36
69239;BME280;56349;51.816;-0.026;2023-08-20T08:26:16;101613.88;;;26.91;33.37
69239;BME280;56349;51.816;-0.026;2023-08-20T08:28:42;101610.04;;;26.88;33.37
69239;BME280;56349;51.816;-0.026;2023-08-20T08:31:07;101611.23;;;26.84;33.42
69239;BME280;56349;51.816;-0.026;2023-08-20T08:33:33;101612.64;;;26.81;33.47
69239;BME280;56349;51.816;-0.026;2023-08-20T08:35:59;101616.83;;;26.79;33.51
69239;BME280;56349;51.816;-0.026;2023-08-20T08:38:24;101619.82;;;26.78;33.50
69239;BME280;56349;51.816;-0.026;2023-08-20T08:40:51;101623.13;;;27.03;33.44
69239;BME280;56349;51.816;-0.026;2023-08-20T08:43:16;101621.55;;;26.72;33.41
69239;BME280;56349;51.816;-0.026;2023-08-20T08:45:46;101621.23;;;26.98;33.46
69239;BME280;56349;51.816;-0.026;2023-08-20T08:48:08;101624.25;;;26.70;33.47
69239;BME280;56349;51.816;-0.026;2023-08-20T08:50:33;101623.62;;;26.70;33.34
69239;BME280;56349;51.816;-0.026;2023-08-20T08:52:59;101619.07;;;26.98;33.21
69239;BME280;56349;51.816;-0.026;2023-08-20T08:55:26;101621.63;;;26.76;33.41
69239;BME280;56349;51.816;-0.026;2023-08-20T08:57:51;101623.97;;;26.83;33.56
69239;BME280;56349;51.816;-0.026;2023-08-20T09:00:16;101620.43;;;26.90;33.70
69239;BME280;56349;51.816;-0.026;2023-08-20T09:02:42;101621.25;;;26.75;33.83
69239;BME280;56349;51.816;-0.026;2023-08-20T09:05:08;101619.79;;;27.01;33.87
69239;BME280;56349;51.816;-0.026;2023-08-20T09:07:34;101618.15;;;26.82;33.85
69239;BME280;56349;51.816;-0.026;2023-08-20T09:10:00;101615.90;;;27.08;33.84
69239;BME280;56349;51.816;-0.026;2023-08-20T09:12:26;101619.68;;;27.11;33.81
69239;BME280;56349;51.816;-0.026;2023-08-20T09:14:52;101617.49;;;27.11;33.80
69239;BME280;56349;51.816;-0.026;2023-08-20T09:17:18;101621.78;;;27.09;33.37
69239;BME280;56349;51.816;-0.026;2023-08-20T09:19:44;101624.79;;;26.84;33.33
69239;BME280;56349;51.816;-0.026;2023-08-20T09:22:12;101627.27;;;27.09;33.40
69239;BME280;56349;51.816;-0.026;2023-08-20T09:24:40;101631.13;;;26.89;33.43
69239;BME280;56349;51.816;-0.026;2023-08-20T09:27:03;101628.20;;;27.14;33.40
69239;BME280;56349;51.816;-0.026;2023-08-20T09:29:27;101626.37;;;27.21;33.35
69239;BME280;56349;51.816;-0.026;2023-08-20T09:32:00;101630.02;;;27.02;33.30
69239;BME280;56349;51.816;-0.026;2023-08-20T09:34:19;101628.06;;;27.24;33.31
69239;BME280;56349;51.816;-0.026;2023-08-20T09:36:44;101629.57;;;27.25;33.29
69239;BME280;56349;51.816;-0.026;2023-08-20T09:39:10;101629.67;;;27.26;33.26
69239;BME280;56349;51.816;-0.026;2023-08-20T09:41:36;101628.71;;;27.04;33.26
69239;BME280;56349;51.816;-0.026;2023-08-20T09:44:02;101629.49;;;27.05;33.27
69239;BME280;56349;51.816;-0.026;2023-08-20T09:46:29;101627.65;;;27.07;33.24
69239;BME280;56349;51.816;-0.026;2023-08-20T09:48:56;101622.42;;;27.29;33.22
69239;BME280;56349;51.816;-0.026;2023-08-20T09:51:24;101620.29;;;27.06;33.19
69239;BME280;56349;51.816;-0.026;2023-08-20T09:53:48;101614.98;;;27.28;33.20
69239;BME280;56349;51.816;-0.026;2023-08-20T09:56:13;101619.80;;;27.06;33.18
69239;BME280;56349;51.816;-0.026;2023-08-20T09:58:37;101618.37;;;27.28;33.16
69239;BME280;56349;51.816;-0.026;2023-08-20T10:01:02;101615.92;;;27.28;33.14
69239;BME280;56349;51.816;-0.026;2023-08-20T10:03:27;101616.42;;;27.28;33.13
69239;BME280;56349;51.816;-0.026;2023-08-20T10:05:54;101606.86;;;27.27;33.10
69239;BME280;56349;51.816;-0.026;2023-08-20T10:08:19;101609.84;;;27.27;33.09
69239;BME280;56349;51.816;-0.026;2023-08-20T10:10:45;101604.69;;;27.27;33.07
69239;BME280;56349;51.816;-0.026;2023-08-20T10:13:09;101605.98;;;27.28;33.05
69239;BME280;56349;51.816;-0.026;2023-08-20T10:15:36;101604.33;;;27.29;33.00
69239;BME280;56349;51.816;-0.026;2023-08-20T10:18:01;101602.12;;;27.08;32.90
69239;BME280;56349;51.816;-0.026;2023-08-20T10:20:29;101603.96;;;27.14;32.96
69239;BME280;56349;51.816;-0.026;2023-08-20T10:22:52;101607.92;;;27.00;32.89
69239;BME280;56349;51.816;-0.026;2023-08-20T10:25:23;101605.90;;;27.17;32.75
69239;BME280;56349;51.816;-0.026;2023-08-20T10:27:44;101606.63;;;27.66;32.46
69239;BME280;56349;51.816;-0.026;2023-08-20T10:30:13;101605.53;;;27.67;32.28
69239;BME280;56349;51.816;-0.026;2023-08-20T10:32:44;101604.55;;;27.76;32.13
69239;BME280;56349;51.816;-0.026;2023-08-20T10:35:01;101603.22;;;28.34;31.82
69239;BME280;56349;51.816;-0.026;2023-08-20T10:37:28;101607.84;;;28.48;31.56
69239;BME280;56349;51.816;-0.026;2023-08-20T10:39:54;101606.55;;;28.63;31.34
69239;BME280;56349;51.816;-0.026;2023-08-20T10:42:26;101615.36;;;28.52;31.13
69239;BME280;56349;51.816;-0.026;2023-08-20T10:47:16;101615.92;;;29.23;30.71
69239;BME280;56349;51.816;-0.026;2023-08-20T10:49:35;101614.42;;;29.56;30.50
69239;BME280;56349;51.816;-0.026;2023-08-20T10:52:02;101614.11;;;29.62;30.11
69239;BME280;56349;51.816;-0.026;2023-08-20T10:54:27;101607.53;;;30.12;29.34
69239;BME280;56349;51.816;-0.026;2023-08-20T10:56:57;101610.63;;;30.37;29.13
69239;BME280;56349;51.816;-0.026;2023-08-20T10:59:21;101610.01;;;30.06;28.64
69239;BME280;56349;51.816;-0.026;2023-08-20T11:01:44;101610.96;;;30.24;28.35
69239;BME280;56349;51.816;-0.026;2023-08-20T11:04:09;101611.88;;;30.40;28.03
69239;BME280;56349;51.816;-0.026;2023-08-20T11:06:35;101611.00;;;30.57;27.80
69239;BME280;56349;51.816;-0.026;2023-08-20T11:09:01;101607.46;;;30.73;27.58
69239;BME280;56349;51.816;-0.026;2023-08-20T11:11:26;101600.28;;;30.67;27.46
69239;BME280;56349;51.816;-0.026;2023-08-20T11:13:52;101597.62;;;30.84;27.35
69239;BME280;56349;51.816;-0.026;2023-08-20T11:16:18;101599.71;;;30.74;27.22
69239;BME280;56349;51.816;-0.026;2023-08-20T11:18:44;101597.38;;;30.90;27.04
69239;BME280;56349;51.816;-0.026;2023-08-20T11:21:09;101593.98;;;31.33;26.88
69239;BME280;56349;51.816;-0.026;2023-08-20T11:23:36;101588.21;;;31.21;26.69
69239;BME280;56349;51.816;-0.026;2023-08-20T11:26:02;101586.47;;;31.60;26.61
69239;BME280;56349;51.816;-0.026;2023-08-20T11:28:28;101585.77;;;31.45;26.45
69239;BME280;56349;51.816;-0.026;2023-08-20T11:30:54;101586.22;;;31.54;26.25
69239;BME280;56349;51.816;-0.026;2023-08-20T11:33:19;101588.28;;;31.42;26.19
69239;BME280;56349;51.816;-0.026;2023-08-20T11:35:45;101591.69;;;31.73;26.14
69239;BME280;56349;51.816;-0.026;2023-08-20T11:38:11;101581.48;;;31.59;26.09
69239;BME280;56349;51.816;-0.026;2023-08-20T11:40:36;101577.00;;;31.92;26.03
69239;BME280;56349;51.816;-0.026;2023-08-20T11:43:02;101574.50;;;31.56;25.92
69239;BME280;56349;51.816;-0.026;2023-08-20T11:45:28;101575.79;;;32.10;25.79
69239;BME280;56349;51.816;-0.026;2023-08-20T11:47:56;101574.11;;;32.15;25.62
69239;BME280;56349;51.816;-0.026;2023-08-20T11:50:20;101576.02;;;31.78;25.55
69239;BME280;56349;51.816;-0.026;2023-08-20T11:52:46;101582.00;;;31.85;25.49
69239;BME280;56349;51.816;-0.026;2023-08-20T11:55:12;101573.71;;;32.12;25.44
69239;BME280;56349;51.816;-0.026;2023-08-20T11:57:38;101573.52;;;31.97;25.44
69239;BME280;56349;51.816;-0.026;2023-08-20T12:00:05;101572.22;;;32.03;25.34
69239;BME280;56349;51.816;-0.026;2023-08-20T12:02:29;101568.42;;;32.07;25.29
69239;BME280;56349;51.816;-0.026;2023-08-20T12:04:56;101573.13;;;32.12;25.22
69239;BME280;56349;51.816;-0.026;2023-08-20T12:07:25;101565.20;;;32.13;24.84
69239;BME280;56349;51.816;-0.026;2023-08-20T12:09:46;101562.15;;;32.08;24.56
69239;BME280;56349;51.816;-0.026;2023-08-20T12:12:12;101563.38;;;32.01;24.50
69239;BME280;56349;51.816;-0.026;2023-08-20T12:14:38;101562.72;;;31.87;24.60
69239;BME280;56349;51.816;-0.026;2023-08-20T12:17:04;101549.69;;;31.90;24.60
69239;BME280;56349;51.816;-0.026;2023-08-20T12:19:30;101549.55;;;31.48;24.35
69239;BME280;56349;51.816;-0.026;2023-08-20T12:21:56;101550.26;;;31.70;24.06
69239;BME280;56349;51.816;-0.026;2023-08-20T12:24:22;101550.59;;;31.46;24.04
69239;BME280;56349;51.816;-0.026;2023-08-20T12:26:49;101549.10;;;31.25;23.80
69239;BME280;56349;51.816;-0.026;2023-08-20T12:29:14;101552.71;;;31.47;23.84
69239;BME280;56349;51.816;-0.026;2023-08-20T12:31:41;101548.33;;;30.99;23.86
69239;BME280;56349;51.816;-0.026;2023-08-20T12:34:05;101557.64;;;30.93;24.16